createdAt,value
2023-03-23T08:00:12.995Z,698.00
2023-03-23T08:00:43.206Z,708.00
2023-03-23T08:01:16.215Z,720.00
2023-03-23T08:01:46.137Z,717.00
2023-03-23T08:02:46.189Z,713.00
2023-03-23T08:03:16.203Z,711.00
2023-03-23T08:03:47.362Z,708.00
2023-03-23T08:04:16.291Z,709.00
2023-03-23T08:04:46.386Z,710.00
2023-03-23T08:05:16.484Z,711.00
2023-03-23T08:05:46.710Z,702.00
2023-03-23T08:06:16.604Z,665.00
2023-03-23T08:07:16.597Z,662.00
2023-03-23T08:07:46.848Z,662.00
2023-03-23T08:08:17.649Z,664.00
2023-03-23T08:08:47.265Z,669.00
2023-03-23T08:09:47.059Z,672.00
2023-03-23T08:10:16.938Z,671.00
2023-03-23T08:10:47.935Z,674.00
2023-03-23T08:11:17.105Z,674.00
2023-03-23T08:11:47.114Z,677.00
2023-03-23T08:12:17.256Z,679.00
2023-03-23T08:12:47.329Z,679.00
2023-03-23T08:13:17.313Z,679.00
2023-03-23T08:13:47.446Z,681.00
2023-03-23T08:14:21.094Z,681.00
2023-03-23T08:14:47.682Z,681.00
2023-03-23T08:15:18.120Z,683.00
2023-03-23T08:15:47.756Z,685.00
2023-03-23T08:16:47.742Z,673.00
2023-03-23T08:17:17.793Z,661.00
2023-03-23T08:17:47.909Z,658.00
2023-03-23T08:18:17.903Z,665.00
2023-03-23T08:18:48.029Z,675.00
2023-03-23T08:19:18.019Z,676.00
2023-03-23T08:19:48.015Z,675.00
2023-03-23T08:20:18.136Z,679.00
2023-03-23T08:20:48.128Z,688.00
2023-03-23T08:21:18.253Z,691.00
2023-03-23T08:21:48.365Z,696.00
2023-03-23T08:22:18.474Z,696.00
2023-03-23T08:22:53.128Z,696.00
2023-03-23T08:23:18.603Z,698.00
2023-03-23T08:23:48.723Z,704.00
2023-03-23T08:24:18.723Z,743.00
2023-03-23T08:24:48.839Z,741.00
2023-03-23T08:25:18.955Z,739.00
2023-03-23T08:25:49.075Z,745.00
2023-03-23T08:26:19.199Z,746.00
2023-03-23T08:26:49.197Z,744.00
2023-03-23T08:27:49.299Z,748.00
2023-03-23T08:28:19.285Z,749.00
2023-03-23T08:28:49.296Z,752.00
2023-03-23T08:29:19.289Z,752.00
2023-03-23T08:29:49.408Z,755.00
2023-03-23T08:30:19.405Z,758.00
2023-03-23T08:30:49.452Z,761.00
2023-03-23T08:31:19.464Z,762.00
2023-03-23T08:31:49.583Z,763.00
2023-03-23T08:32:19.607Z,768.00
2023-03-23T08:32:49.614Z,770.00
2023-03-23T08:33:19.686Z,774.00
2023-03-23T08:33:49.683Z,778.00
2023-03-23T08:34:20.120Z,782.00
2023-03-23T08:34:49.859Z,785.00
2023-03-23T08:35:20.010Z,784.00
2023-03-23T08:35:50.106Z,786.00
2023-03-23T08:36:20.181Z,788.00
2023-03-23T08:36:52.014Z,790.00
2023-03-23T08:37:20.307Z,789.00
2023-03-23T08:38:20.603Z,790.00
2023-03-23T08:38:50.373Z,791.00
2023-03-23T08:39:50.477Z,794.00
2023-03-23T08:40:20.667Z,797.00
2023-03-23T08:40:50.582Z,800.00
2023-03-23T08:41:20.730Z,804.00
2023-03-23T08:41:50.623Z,809.00
2023-03-23T08:42:20.865Z,812.00
2023-03-23T08:42:59.375Z,811.00
2023-03-23T08:43:21.096Z,815.00
2023-03-23T08:43:51.482Z,812.00
2023-03-23T08:44:20.886Z,809.00
2023-03-23T08:45:21.020Z,799.00
2023-03-23T08:45:51.138Z,787.00
2023-03-23T08:46:21.913Z,784.00
2023-03-23T08:46:51.196Z,779.00
2023-03-23T08:47:21.251Z,777.00
2023-03-23T08:47:51.258Z,775.00
2023-03-23T08:48:21.285Z,773.00
2023-03-23T08:48:51.351Z,770.00
2023-03-23T08:49:21.375Z,767.00
2023-03-23T08:49:51.727Z,761.00
2023-03-23T08:50:21.393Z,756.00
2023-03-23T08:51:21.553Z,745.00
2023-03-23T08:51:51.618Z,743.00
2023-03-23T08:52:21.605Z,740.00
2023-03-23T08:52:51.627Z,735.00
2023-03-23T08:53:21.622Z,729.00
2023-03-23T08:53:51.688Z,723.00
2023-03-23T08:54:21.725Z,719.00
2023-03-23T08:54:52.257Z,716.00
2023-03-23T08:55:21.804Z,717.00
2023-03-23T08:56:22.036Z,723.00
2023-03-23T08:56:52.043Z,730.00
2023-03-23T08:57:52.170Z,749.00
2023-03-23T08:58:22.913Z,756.00
2023-03-23T08:58:52.195Z,757.00
2023-03-23T08:59:52.312Z,750.00
2023-03-23T09:00:22.359Z,748.00
2023-03-23T09:00:52.332Z,745.00
2023-03-23T09:01:22.458Z,742.00
2023-03-23T09:01:52.549Z,739.00
2023-03-23T09:02:22.514Z,738.00
2023-03-23T09:02:52.557Z,752.00
2023-03-23T09:03:22.755Z,744.00
2023-03-23T09:03:52.822Z,736.00
2023-03-23T09:04:22.921Z,733.00
2023-03-23T09:04:52.990Z,728.00
2023-03-23T09:05:23.069Z,723.00
2023-03-23T09:05:53.143Z,727.00
2023-03-23T09:06:23.232Z,721.00
2023-03-23T09:06:53.311Z,713.00
2023-03-23T09:07:23.393Z,695.00
2023-03-23T09:07:53.469Z,681.00
2023-03-23T09:08:23.548Z,682.00
2023-03-23T09:08:53.631Z,683.00
2023-03-23T09:09:23.716Z,683.00
2023-03-23T09:09:53.795Z,685.00
2023-03-23T09:10:24.428Z,685.00
2023-03-23T09:10:53.889Z,685.00
2023-03-23T09:11:54.096Z,683.00
2023-03-23T09:12:24.140Z,681.00
2023-03-23T09:12:54.131Z,679.00
2023-03-23T09:13:54.200Z,677.00
2023-03-23T09:14:24.217Z,676.00
2023-03-23T09:14:54.208Z,678.00
2023-03-23T09:15:32.456Z,677.00
2023-03-23T09:15:55.522Z,688.00
2023-03-23T09:16:24.249Z,692.00
2023-03-23T09:16:54.242Z,685.00
2023-03-23T09:17:24.270Z,673.00
2023-03-23T09:18:24.302Z,664.00
2023-03-23T09:18:54.422Z,661.00
2023-03-23T09:19:24.540Z,658.00
2023-03-23T09:19:55.582Z,656.00
2023-03-23T09:20:24.768Z,655.00
2023-03-23T09:20:54.769Z,658.00
2023-03-23T09:21:24.806Z,656.00
2023-03-23T09:21:54.812Z,651.00
2023-03-23T09:22:24.821Z,647.00
2023-03-23T09:22:54.845Z,649.00
2023-03-23T09:23:24.867Z,650.00
2023-03-23T09:23:54.856Z,650.00
2023-03-23T09:24:54.934Z,657.00
2023-03-23T09:25:25.043Z,664.00
2023-03-23T09:25:55.046Z,652.00
2023-03-23T09:26:25.054Z,636.00
2023-03-23T09:27:25.132Z,632.00
2023-03-23T09:27:55.268Z,632.00
2023-03-23T09:28:25.276Z,633.00
2023-03-23T09:28:55.390Z,638.00
2023-03-23T09:29:25.384Z,642.00
2023-03-23T09:30:25.463Z,685.00
2023-03-23T09:30:55.583Z,685.00
2023-03-23T09:31:25.701Z,685.00
2023-03-23T09:31:55.707Z,684.00
2023-03-23T09:32:25.816Z,687.00
2023-03-23T09:32:55.999Z,685.00
2023-03-23T09:33:25.969Z,681.00
2023-03-23T09:33:56.103Z,681.00
2023-03-23T09:34:26.097Z,681.00
2023-03-23T09:35:26.174Z,684.00
2023-03-23T09:35:56.360Z,687.00
2023-03-23T09:36:26.354Z,691.00
2023-03-23T09:36:57.270Z,688.00
2023-03-23T09:37:26.502Z,685.00
2023-03-23T09:37:56.644Z,681.00
2023-03-23T09:38:26.636Z,679.00
2023-03-23T09:38:56.658Z,681.00
2023-03-23T09:39:26.651Z,683.00
2023-03-23T09:40:06.930Z,682.00
2023-03-23T09:40:26.800Z,684.00
2023-03-23T09:40:56.812Z,685.00
2023-03-23T09:41:26.990Z,686.00
2023-03-23T09:41:56.982Z,689.00
2023-03-23T09:42:57.066Z,703.00
2023-03-23T09:43:27.174Z,714.00
2023-03-23T09:43:57.173Z,722.00
2023-03-23T09:44:57.242Z,739.00
2023-03-23T09:45:27.235Z,743.00
2023-03-23T09:46:27.322Z,750.00
2023-03-23T09:46:57.316Z,757.00
2023-03-23T09:47:57.409Z,759.00
2023-03-23T09:48:27.551Z,756.00
2023-03-23T09:48:57.522Z,750.00
2023-03-23T09:49:57.612Z,718.00
2023-03-23T09:50:27.640Z,698.00
2023-03-23T09:50:57.639Z,702.00
2023-03-23T09:51:27.784Z,709.00
2023-03-23T09:51:57.770Z,709.00
2023-03-23T09:52:57.859Z,700.00
2023-03-23T09:53:27.858Z,691.00
2023-03-23T09:53:57.978Z,680.00
2023-03-23T09:54:27.976Z,675.00
2023-03-23T09:55:28.042Z,683.00
2023-03-23T09:55:58.039Z,686.00
2023-03-23T09:56:28.068Z,690.00
2023-03-23T09:56:58.061Z,688.00
2023-03-23T09:57:58.141Z,689.00
2023-03-23T09:58:28.132Z,692.00
2023-03-23T09:58:58.254Z,692.00
2023-03-23T09:59:28.243Z,692.00
2023-03-23T09:59:58.374Z,696.00
2023-03-23T10:00:28.425Z,695.00
2023-03-23T10:00:58.399Z,697.00
2023-03-23T10:01:28.475Z,698.00
2023-03-23T10:01:58.576Z,699.00
2023-03-23T10:02:28.648Z,698.00
2023-03-23T10:02:58.733Z,699.00
2023-03-23T10:03:28.815Z,700.00
2023-03-23T10:03:58.932Z,698.00
2023-03-23T10:04:28.983Z,700.00
2023-03-23T10:04:59.068Z,702.00
2023-03-23T10:05:29.155Z,703.00
2023-03-23T10:05:59.243Z,704.00
2023-03-23T10:06:29.323Z,704.00
2023-03-23T10:06:59.421Z,705.00
2023-03-23T10:07:29.497Z,706.00
2023-03-23T10:07:59.579Z,706.00
2023-03-23T10:08:29.658Z,707.00
2023-03-23T10:08:59.763Z,709.00
2023-03-23T10:09:29.823Z,710.00
2023-03-23T10:09:59.901Z,712.00
2023-03-23T10:10:29.985Z,712.00
2023-03-23T10:11:00.099Z,710.00
2023-03-23T10:11:30.078Z,710.00
2023-03-23T10:12:00.208Z,712.00
2023-03-23T10:12:30.203Z,712.00
2023-03-23T10:13:00.322Z,712.00
2023-03-23T10:13:30.319Z,715.00
2023-03-23T10:14:00.330Z,719.00
2023-03-23T10:14:30.328Z,723.00
2023-03-23T10:15:00.440Z,724.00
2023-03-23T10:15:30.437Z,727.00
2023-03-23T10:16:00.551Z,731.00
2023-03-23T10:16:30.550Z,732.00
2023-03-23T10:17:00.694Z,737.00
2023-03-23T10:17:30.717Z,741.00
2023-03-23T10:18:00.723Z,745.00
2023-03-23T10:18:30.840Z,747.00
2023-03-23T10:19:00.961Z,755.00
2023-03-23T10:19:30.980Z,757.00
2023-03-23T10:20:01.081Z,757.00
2023-03-23T10:20:31.203Z,760.00
2023-03-23T10:21:01.313Z,763.00
2023-03-23T10:21:31.429Z,763.00
2023-03-23T10:22:01.553Z,765.00
2023-03-23T10:22:31.673Z,766.00
2023-03-23T10:23:01.783Z,767.00
2023-03-23T10:23:31.784Z,768.00
2023-03-23T10:24:01.997Z,767.00
2023-03-23T10:24:31.858Z,766.00
2023-03-23T10:25:32.078Z,760.00
2023-03-23T10:26:02.094Z,718.00
2023-03-23T10:26:32.084Z,708.00
2023-03-23T10:27:32.169Z,703.00
2023-03-23T10:28:02.169Z,705.00
2023-03-23T10:28:32.291Z,710.00
2023-03-23T10:29:02.513Z,714.00
2023-03-23T10:29:32.371Z,718.00
2023-03-23T10:30:32.467Z,732.00
2023-03-23T10:31:02.580Z,741.00
2023-03-23T10:31:32.694Z,749.00
2023-03-23T10:32:02.827Z,751.00
2023-03-23T10:32:32.819Z,746.00
2023-03-23T10:33:02.949Z,743.00
2023-03-23T10:33:32.937Z,741.00
2023-03-23T10:34:02.930Z,742.00
2023-03-23T10:34:33.051Z,741.00
2023-03-23T10:35:03.201Z,739.00
2023-03-23T10:35:33.324Z,738.00
2023-03-23T10:36:03.333Z,730.00
2023-03-23T10:36:33.437Z,714.00
2023-03-23T10:37:03.581Z,689.00
2023-03-23T10:37:33.582Z,677.00
2023-03-23T10:38:33.647Z,673.00
2023-03-23T10:39:03.764Z,672.00
2023-03-23T10:39:33.766Z,673.00
2023-03-23T10:40:33.833Z,665.00
2023-03-23T10:41:03.959Z,665.00
2023-03-23T10:41:33.948Z,741.00
2023-03-23T10:42:04.086Z,657.00
2023-03-23T10:42:34.083Z,657.00
2023-03-23T10:43:34.149Z,666.00
2023-03-23T10:44:04.264Z,668.00
2023-03-23T10:44:34.500Z,688.00
2023-03-23T10:45:04.494Z,702.00
2023-03-23T10:45:34.548Z,702.00
2023-03-23T10:46:04.728Z,701.00
2023-03-23T10:46:37.397Z,702.00
2023-03-23T10:47:04.685Z,703.00
2023-03-23T10:47:34.725Z,705.00
2023-03-23T10:48:04.779Z,706.00
2023-03-23T10:48:34.837Z,711.00
2023-03-23T10:49:04.897Z,715.00
2023-03-23T10:49:34.953Z,765.00
2023-03-23T10:50:05.015Z,773.00
2023-03-23T10:50:35.107Z,782.00
2023-03-23T10:51:05.136Z,796.00
2023-03-23T10:51:35.172Z,805.00
2023-03-23T10:52:05.226Z,809.00
2023-03-23T10:52:35.279Z,812.00
2023-03-23T10:53:06.558Z,817.00
2023-03-23T10:53:35.341Z,820.00
2023-03-23T10:54:05.384Z,820.00
2023-03-23T10:54:35.444Z,824.00
2023-03-23T10:55:05.481Z,830.00
2023-03-23T10:55:35.515Z,834.00
2023-03-23T10:56:05.549Z,836.00
2023-03-23T10:56:48.347Z,840.00
2023-03-23T10:57:05.623Z,844.00
2023-03-23T10:57:35.663Z,852.00
2023-03-23T10:58:05.706Z,855.00
2023-03-23T10:58:35.758Z,857.00
2023-03-23T10:59:05.822Z,865.00
2023-03-23T10:59:35.863Z,887.00
2023-03-23T11:00:05.878Z,889.00
2023-03-23T11:00:35.875Z,889.00
2023-03-23T11:01:35.906Z,899.00
2023-03-23T11:02:05.985Z,902.00
2023-03-23T11:02:36.073Z,903.00
2023-03-23T11:03:06.951Z,904.00
2023-03-23T11:03:36.167Z,908.00
2023-03-23T11:04:06.260Z,912.00
2023-03-23T11:04:36.348Z,912.00
2023-03-23T11:05:09.612Z,916.00
2023-03-23T11:05:36.547Z,921.00
2023-03-23T11:06:06.665Z,921.00
2023-03-23T11:06:36.726Z,924.00
2023-03-23T11:07:06.802Z,927.00
2023-03-23T11:07:36.899Z,930.00
2023-03-23T11:08:06.981Z,933.00
2023-03-23T11:08:37.056Z,935.00
2023-03-23T11:09:07.145Z,936.00
2023-03-23T11:09:37.225Z,940.00
2023-03-23T11:10:07.307Z,943.00
2023-03-23T11:10:37.390Z,949.00
2023-03-23T11:11:07.500Z,951.00
2023-03-23T11:11:37.493Z,955.00
2023-03-23T11:12:07.607Z,954.00
2023-03-23T11:12:37.730Z,957.00
2023-03-23T11:13:07.723Z,959.00
2023-03-23T11:13:37.860Z,961.00
2023-03-23T11:14:07.859Z,962.00
2023-03-23T11:14:37.864Z,964.00
2023-03-23T11:15:07.860Z,966.00
2023-03-23T11:15:37.998Z,974.00
2023-03-23T11:16:07.977Z,985.00
2023-03-23T11:16:38.011Z,1008.00
2023-03-23T11:17:15.839Z,1025.00
2023-03-23T11:17:38.077Z,1032.00
2023-03-23T11:18:08.115Z,1029.00
2023-03-23T11:18:38.170Z,1026.00
2023-03-23T11:19:08.202Z,1022.00
2023-03-23T11:19:38.238Z,1024.00
2023-03-23T11:20:08.283Z,1019.00
2023-03-23T11:20:38.322Z,1018.00
2023-03-23T11:21:08.376Z,1018.00
2023-03-23T11:21:38.389Z,1016.00
2023-03-23T11:22:08.435Z,1018.00
2023-03-23T11:22:38.483Z,1020.00
2023-03-23T11:23:08.513Z,1022.00
2023-03-23T11:23:38.554Z,1024.00
2023-03-23T11:24:10.125Z,1023.00
2023-03-23T11:24:38.701Z,1025.00
2023-03-23T11:25:08.729Z,1022.00
2023-03-23T11:25:38.798Z,1020.00
2023-03-23T11:26:08.810Z,1019.00
2023-03-23T11:26:40.211Z,1018.00
2023-03-23T11:27:08.955Z,1016.00
2023-03-23T11:27:38.997Z,1014.00
2023-03-23T11:28:09.028Z,1012.00
2023-03-23T11:28:39.068Z,1012.00
2023-03-23T11:29:09.116Z,1010.00
2023-03-23T11:29:39.259Z,1007.00
2023-03-23T11:30:09.150Z,1007.00
2023-03-23T11:30:39.191Z,1005.00
2023-03-23T11:31:09.225Z,1002.00
2023-03-23T11:31:39.260Z,1000.00
2023-03-23T11:32:09.342Z,998.00
2023-03-23T11:32:39.465Z,996.00
2023-03-23T11:33:09.455Z,995.00
2023-03-23T11:33:39.569Z,993.00
2023-03-23T11:34:09.685Z,989.00
2023-03-23T11:34:39.806Z,989.00
2023-03-23T11:35:16.192Z,988.00
2023-03-23T11:35:40.134Z,988.00
2023-03-23T11:36:10.015Z,986.00
2023-03-23T11:36:39.992Z,986.00
2023-03-23T11:37:40.096Z,981.00
2023-03-23T11:38:10.087Z,979.00
2023-03-23T11:38:40.223Z,979.00
2023-03-23T11:39:10.216Z,978.00
2023-03-23T11:39:40.207Z,979.00
2023-03-23T11:40:40.317Z,978.00
2023-03-23T11:41:10.314Z,977.00
2023-03-23T11:41:40.435Z,976.00
2023-03-23T11:42:10.428Z,979.00
2023-03-23T11:42:40.555Z,977.00
2023-03-23T11:43:10.542Z,976.00
2023-03-23T11:43:40.678Z,974.00
2023-03-23T11:44:10.670Z,973.00
2023-03-23T11:44:40.787Z,973.00
2023-03-23T11:45:10.780Z,972.00
2023-03-23T11:45:40.932Z,970.00
2023-03-23T11:46:10.854Z,970.00
2023-03-23T11:46:40.855Z,969.00
2023-03-23T11:47:40.939Z,981.00
2023-03-23T11:48:11.054Z,982.00
2023-03-23T11:48:41.080Z,985.00
2023-03-23T11:49:23.236Z,983.00
2023-03-23T11:49:41.114Z,983.00
2023-03-23T11:50:11.104Z,986.00
2023-03-23T11:50:41.226Z,992.00
2023-03-23T11:51:11.227Z,994.00
2023-03-23T11:51:41.373Z,997.00
2023-03-23T11:52:11.462Z,997.00
2023-03-23T11:52:41.531Z,1001.00
2023-03-23T11:53:11.575Z,1003.00
2023-03-23T11:53:41.618Z,1005.00
2023-03-23T11:54:11.655Z,1010.00
2023-03-23T11:54:41.722Z,1014.00
2023-03-23T11:55:11.735Z,1015.00
2023-03-23T11:55:41.950Z,1019.00
2023-03-23T11:56:11.824Z,1020.00
2023-03-23T11:56:41.953Z,1020.00
2023-03-23T11:57:11.978Z,1017.00
2023-03-23T11:57:42.009Z,1018.00
2023-03-23T11:58:12.046Z,1020.00
2023-03-23T11:58:42.096Z,1021.00
2023-03-23T11:59:12.132Z,1023.00
2023-03-23T11:59:42.176Z,1023.00
2023-03-23T12:00:12.204Z,1027.00
2023-03-23T12:00:42.239Z,1027.00
2023-03-23T12:01:12.238Z,1029.00
2023-03-23T12:02:17.101Z,1030.00
2023-03-23T12:02:42.325Z,1029.00
2023-03-23T12:03:12.322Z,1032.00
2023-03-23T12:03:42.334Z,1034.00
2023-03-23T12:04:12.336Z,1036.00
2023-03-23T12:04:42.395Z,1039.00
2023-03-23T12:05:12.381Z,1043.00
2023-03-23T12:05:42.520Z,1047.00
2023-03-23T12:06:12.404Z,1050.00
2023-03-23T12:06:42.404Z,1050.00
2023-03-23T12:07:12.434Z,1047.00
2023-03-23T12:07:42.421Z,1046.00
2023-03-23T12:08:42.505Z,1041.00
2023-03-23T12:09:12.559Z,1037.00
2023-03-23T12:09:42.624Z,1033.00
2023-03-23T12:10:12.628Z,1029.00
2023-03-23T12:11:12.625Z,1027.00
2023-03-23T12:11:42.661Z,1025.00
2023-03-23T12:12:12.698Z,1021.00
2023-03-23T12:12:42.745Z,1020.00
2023-03-23T12:13:16.045Z,1020.00
2023-03-23T12:13:46.947Z,1021.00
2023-03-23T12:14:12.914Z,1020.00
2023-03-23T12:15:13.018Z,1016.00
2023-03-23T12:15:43.126Z,1016.00
2023-03-23T12:16:13.088Z,1016.00
2023-03-23T12:16:43.121Z,1016.00
2023-03-23T12:17:13.161Z,1019.00
2023-03-23T12:17:43.226Z,1021.00
2023-03-23T12:18:13.243Z,1024.00
2023-03-23T12:18:43.285Z,1025.00
2023-03-23T12:19:13.334Z,1026.00
2023-03-23T12:19:43.380Z,1027.00
2023-03-23T12:20:13.416Z,1028.00
2023-03-23T12:20:43.452Z,1027.00
2023-03-23T12:21:14.575Z,1025.00
2023-03-23T12:21:43.607Z,1025.00
2023-03-23T12:22:13.655Z,1022.00
2023-03-23T12:22:43.726Z,1019.00
2023-03-23T12:23:13.742Z,1018.00
2023-03-23T12:23:44.144Z,1013.00
2023-03-23T12:24:13.801Z,1005.00
2023-03-23T12:25:13.998Z,990.00
2023-03-23T12:25:44.396Z,985.00
2023-03-23T12:26:14.127Z,978.00
2023-03-23T12:26:44.241Z,974.00
2023-03-23T12:27:14.357Z,969.00
2023-03-23T12:27:44.366Z,967.00
2023-03-23T12:28:14.379Z,966.00
2023-03-23T12:28:44.478Z,966.00
2023-03-23T12:29:14.599Z,963.00
2023-03-23T12:29:44.599Z,964.00
2023-03-23T12:30:14.590Z,964.00
2023-03-23T12:30:44.704Z,968.00
2023-03-23T12:31:14.835Z,972.00
2023-03-23T12:32:15.028Z,976.00
2023-03-23T12:32:45.022Z,974.00
2023-03-23T12:33:45.127Z,971.00
2023-03-23T12:34:15.126Z,971.00
2023-03-23T12:35:15.215Z,959.00
2023-03-23T12:35:45.357Z,956.00
2023-03-23T12:36:15.342Z,953.00
2023-03-23T12:36:45.309Z,950.00
2023-03-23T12:37:15.432Z,950.00
2023-03-23T12:37:45.421Z,944.00
2023-03-23T12:38:15.442Z,940.00
2023-03-23T12:38:45.537Z,932.00
2023-03-23T12:39:15.537Z,929.00
2023-03-23T12:39:45.781Z,929.00
2023-03-23T12:40:15.779Z,926.00
2023-03-23T12:40:46.630Z,921.00
2023-03-23T12:41:15.768Z,920.00
2023-03-23T12:42:15.842Z,912.00
2023-03-23T12:42:45.836Z,904.00
2023-03-23T12:43:15.955Z,898.00
2023-03-23T12:43:46.076Z,893.00
2023-03-23T12:44:16.076Z,889.00
2023-03-23T12:45:16.154Z,886.00
2023-03-23T12:45:46.165Z,885.00
2023-03-23T12:46:16.164Z,882.00
2023-03-23T12:46:46.277Z,886.00
2023-03-23T12:47:16.401Z,890.00
2023-03-23T12:47:46.395Z,897.00
2023-03-23T12:48:46.489Z,899.00
2023-03-23T12:49:16.480Z,899.00
2023-03-23T12:49:46.591Z,898.00
2023-03-23T12:50:16.557Z,898.00
2023-03-23T12:50:46.553Z,897.00
2023-03-23T12:51:16.617Z,894.00
2023-03-23T12:51:46.735Z,895.00
2023-03-23T12:52:16.733Z,888.00
2023-03-23T12:53:16.860Z,882.00
2023-03-23T12:53:46.836Z,879.00
2023-03-23T12:54:46.932Z,873.00
2023-03-23T12:55:17.054Z,870.00
2023-03-23T12:55:47.039Z,869.00
2023-03-23T12:56:17.160Z,866.00
2023-03-23T12:56:47.278Z,860.00
2023-03-23T12:57:17.399Z,851.00
2023-03-23T12:57:47.521Z,844.00
2023-03-23T12:58:17.637Z,839.00
2023-03-23T12:58:48.961Z,835.00
2023-03-23T12:59:17.687Z,834.00
2023-03-23T12:59:47.684Z,828.00
2023-03-23T13:00:17.799Z,824.00
2023-03-23T13:00:47.917Z,822.00
2023-03-23T13:01:17.995Z,822.00
2023-03-23T13:01:48.074Z,825.00
2023-03-23T13:02:18.161Z,826.00
2023-03-23T13:02:48.235Z,834.00
2023-03-23T13:03:18.313Z,845.00
2023-03-23T13:03:48.394Z,878.00
2023-03-23T13:04:18.487Z,890.00
2023-03-23T13:04:50.574Z,886.00
2023-03-23T13:05:18.644Z,875.00
2023-03-23T13:05:48.759Z,864.00
2023-03-23T13:06:18.829Z,857.00
2023-03-23T13:06:48.910Z,850.00
2023-03-23T13:07:18.990Z,840.00
2023-03-23T13:07:49.070Z,833.00
2023-03-23T13:08:19.181Z,825.00
2023-03-23T13:08:49.236Z,819.00
2023-03-23T13:09:19.317Z,810.00
2023-03-23T13:09:49.408Z,806.00
2023-03-23T13:10:19.484Z,806.00
2023-03-23T13:10:49.568Z,802.00
2023-03-23T13:11:19.692Z,798.00
2023-03-23T13:11:49.683Z,795.00
2023-03-23T13:12:19.803Z,791.00
2023-03-23T13:12:49.807Z,787.00
2023-03-23T13:13:55.202Z,778.00
2023-03-23T13:14:19.903Z,775.00
2023-03-23T13:14:49.899Z,772.00
2023-03-23T13:15:49.980Z,764.00
2023-03-23T13:16:20.106Z,759.00
2023-03-23T13:16:50.093Z,757.00
2023-03-23T13:17:50.188Z,754.00
2023-03-23T13:18:20.309Z,753.00
2023-03-23T13:18:50.308Z,753.00
2023-03-23T13:19:20.301Z,752.00
2023-03-23T13:20:20.378Z,749.00
2023-03-23T13:20:50.493Z,746.00
2023-03-23T13:21:20.614Z,740.00
2023-03-23T13:21:52.958Z,739.00
2023-03-23T13:22:20.698Z,737.00
2023-03-23T13:22:50.810Z,736.00
2023-03-23T13:23:20.809Z,735.00
2023-03-23T13:23:50.828Z,736.00
2023-03-23T13:24:50.886Z,736.00
2023-03-23T13:25:20.881Z,736.00
2023-03-23T13:25:50.995Z,738.00
2023-03-23T13:26:21.114Z,738.00
2023-03-23T13:26:51.115Z,737.00
2023-03-23T13:27:51.185Z,739.00
2023-03-23T13:28:21.200Z,739.00
2023-03-23T13:28:51.199Z,738.00
2023-03-23T13:29:21.316Z,736.00
2023-03-23T13:29:51.314Z,734.00
2023-03-23T13:30:51.398Z,732.00
2023-03-23T13:31:21.394Z,732.00
2023-03-23T13:32:21.478Z,731.00
2023-03-23T13:32:57.280Z,732.00
2023-03-23T13:33:21.618Z,734.00
2023-03-23T13:33:51.613Z,736.00
2023-03-23T13:34:51.691Z,735.00
2023-03-23T13:35:21.685Z,737.00
2023-03-23T13:36:21.795Z,736.00
2023-03-23T13:36:51.784Z,736.00
2023-03-23T13:37:21.786Z,736.00
2023-03-23T13:37:51.909Z,736.00
2023-03-23T13:38:21.905Z,734.00
2023-03-23T13:38:51.910Z,735.00
2023-03-23T13:39:21.935Z,733.00
2023-03-23T13:40:21.993Z,729.00
2023-03-23T13:40:52.119Z,731.00
2023-03-23T13:41:22.236Z,730.00
2023-03-23T13:41:52.232Z,732.00
2023-03-23T13:42:52.319Z,735.00
2023-03-23T13:43:22.312Z,734.00
2023-03-23T13:43:52.320Z,733.00
2023-03-23T13:44:22.430Z,733.00
2023-03-23T13:44:52.555Z,734.00
2023-03-23T13:45:22.569Z,738.00
2023-03-23T13:45:52.565Z,741.00
2023-03-23T13:46:22.681Z,741.00
2023-03-23T13:46:52.678Z,740.00
2023-03-23T13:47:52.774Z,740.00
2023-03-23T13:48:22.773Z,739.00
2023-03-23T13:49:22.858Z,745.00
2023-03-23T13:49:52.852Z,749.00
2023-03-23T13:50:22.968Z,755.00
2023-03-23T13:50:52.972Z,763.00
2023-03-23T13:51:23.090Z,781.00
2023-03-23T13:51:53.238Z,805.00
2023-03-23T13:52:23.244Z,819.00
2023-03-23T13:52:53.364Z,820.00
2023-03-23T13:53:23.485Z,819.00
2023-03-23T13:53:53.507Z,812.00
2023-03-23T13:54:23.508Z,806.00
2023-03-23T13:54:53.543Z,801.00
2023-03-23T13:55:23.505Z,796.00
2023-03-23T13:55:53.499Z,790.00
2023-03-23T13:56:23.618Z,782.00
2023-03-23T13:56:53.617Z,773.00
2023-03-23T13:57:23.617Z,768.00
2023-03-23T13:58:23.696Z,761.00
2023-03-23T13:58:53.695Z,758.00
2023-03-23T13:59:23.699Z,757.00
2023-03-23T14:00:23.778Z,758.00
2023-03-23T14:00:53.886Z,756.00
2023-03-23T14:01:23.970Z,755.00
2023-03-23T14:01:54.059Z,754.00
2023-03-23T14:02:24.156Z,754.00
2023-03-23T14:02:54.227Z,756.00
2023-03-23T14:03:24.305Z,758.00
2023-03-23T14:03:54.377Z,760.00
2023-03-23T14:04:24.467Z,763.00
2023-03-23T14:04:54.550Z,765.00
2023-03-23T14:05:24.626Z,768.00
2023-03-23T14:05:54.710Z,775.00
2023-03-23T14:06:24.794Z,781.00
2023-03-23T14:06:54.873Z,785.00
2023-03-23T14:07:24.954Z,789.00
2023-03-23T14:07:55.039Z,791.00
2023-03-23T14:08:25.116Z,796.00
2023-03-23T14:08:55.200Z,798.00
2023-03-23T14:09:25.284Z,799.00
2023-03-23T14:09:55.369Z,803.00
2023-03-23T14:10:25.470Z,807.00
2023-03-23T14:10:55.542Z,807.00
2023-03-23T14:11:25.667Z,811.00
2023-03-23T14:11:55.660Z,816.00
2023-03-23T14:12:25.784Z,821.00
2023-03-23T14:12:55.773Z,826.00
2023-03-23T14:13:55.856Z,825.00
2023-03-23T14:14:25.987Z,827.00
2023-03-23T14:14:55.982Z,830.00
2023-03-23T14:15:26.147Z,832.00
2023-03-23T14:15:56.129Z,831.00
2023-03-23T14:16:26.248Z,834.00
2023-03-23T14:16:56.250Z,838.00
2023-03-23T14:17:26.248Z,841.00
2023-03-23T14:17:56.363Z,845.00
2023-03-23T14:18:26.375Z,848.00
2023-03-23T14:19:26.437Z,850.00
2023-03-23T14:19:56.429Z,851.00
2023-03-23T14:20:26.440Z,851.00
2023-03-23T14:20:56.557Z,851.00
2023-03-23T14:21:26.552Z,851.00
2023-03-23T14:22:26.637Z,852.00
2023-03-23T14:22:56.754Z,852.00
2023-03-23T14:23:26.751Z,855.00
2023-03-23T14:23:56.759Z,855.00
2023-03-23T14:24:26.888Z,857.00
2023-03-23T14:24:56.884Z,858.00
2023-03-23T14:25:26.996Z,856.00
2023-03-23T14:25:57.019Z,857.00
2023-03-23T14:26:27.110Z,857.00
2023-03-23T14:26:57.110Z,857.00
2023-03-23T14:27:27.105Z,855.00
2023-03-23T14:27:57.234Z,856.00
2023-03-23T14:28:27.336Z,855.00
2023-03-23T14:28:57.355Z,856.00
2023-03-23T14:29:57.421Z,856.00
2023-03-23T14:30:27.414Z,858.00
2023-03-23T14:31:27.505Z,867.00
2023-03-23T14:31:57.630Z,864.00
2023-03-23T14:32:27.645Z,863.00
2023-03-23T14:32:57.661Z,863.00
2023-03-23T14:33:27.650Z,859.00
2023-03-23T14:33:57.661Z,856.00
2023-03-23T14:34:27.665Z,855.00
2023-03-23T14:34:57.783Z,857.00
2023-03-23T14:35:27.779Z,859.00
2023-03-23T14:35:57.897Z,857.00
2023-03-23T14:36:28.028Z,855.00
2023-03-23T14:36:58.059Z,856.00
2023-03-23T14:37:28.047Z,857.00
2023-03-23T14:37:58.047Z,854.00
2023-03-23T14:38:58.125Z,856.00
2023-03-23T14:39:28.138Z,854.00
2023-03-23T14:39:58.130Z,854.00
2023-03-23T14:40:28.248Z,856.00
2023-03-23T14:40:58.365Z,857.00
2023-03-23T14:41:28.385Z,858.00
2023-03-23T14:42:28.432Z,864.00
2023-03-23T14:42:58.549Z,872.00
2023-03-23T14:43:28.666Z,877.00
2023-03-23T14:43:58.666Z,879.00
2023-03-23T14:44:58.761Z,887.00
2023-03-23T14:45:28.748Z,889.00
2023-03-23T14:45:58.875Z,892.00
2023-03-23T14:46:28.867Z,895.00
2023-03-23T14:46:58.986Z,897.00
2023-03-23T14:47:28.996Z,899.00
2023-03-23T14:48:29.057Z,899.00
2023-03-23T14:48:59.180Z,902.00
2023-03-23T14:49:29.171Z,904.00
2023-03-23T14:49:59.307Z,905.00
2023-03-23T14:50:29.297Z,906.00
2023-03-23T14:51:29.389Z,911.00